Time;durP1;ratioP1;P1;durP2;ratioP2;P2;SDS_P1;SDS_P2;PMS_P1;PMS_P2;Temp;Humidity;BMP_temperature;BMP_pressure;BME280_temperature;BME280_humidity;BME280_pressure;Samples;Min_cycle;Max_cycle;Signal;HPM_P1;HPM_P2
2022/06/29 00:01:47;;;;;;;;;1.00;1.00;;;;;;;;4974404;28;45488;-64
2022/06/29 00:04:12;;;;;;;;;2.00;2.00;;;;;;;;4975478;28;45950;-63
2022/06/29 00:06:38;;;;;;;;;1.25;1.25;;;;;;;;4972361;28;45412;-64
2022/06/29 00:09:03;;;;;;;;;2.00;2.00;;;;;;;;4974678;28;45333;-64
2022/06/29 00:11:28;;;;;;;;;2.00;2.00;;;;;;;;4970067;28;45360;-65
2022/06/29 00:13:54;;;;;;;;;1.50;1.50;;;;;;;;4972763;28;45646;-65
2022/06/29 00:16:19;;;;;;;;;1.00;1.00;;;;;;;;4968286;28;45466;-64
2022/06/29 00:18:44;;;;;;;;;2.00;2.00;;;;;;;;4986701;28;45669;-64
2022/06/29 00:21:10;;;;;;;;;3.75;1.00;;;;;;;;5002213;28;45471;-65
2022/06/29 00:23:35;;;;;;;;;1.75;1.75;;;;;;;;4969546;28;47372;-65
2022/06/29 00:26:00;;;;;;;;;1.25;1.25;;;;;;;;4998930;28;46037;-65
2022/06/29 00:28:25;;;;;;;;;3.00;1.50;;;;;;;;4966996;28;45528;-65
2022/06/29 00:30:51;;;;;;;;;2.00;2.00;;;;;;;;4972739;28;45479;-63
2022/06/29 00:33:16;;;;;;;;;2.00;2.00;;;;;;;;4966102;28;46608;-65
2022/06/29 00:35:41;;;;;;;;;2.00;2.00;;;;;;;;4970604;28;45499;-65
2022/06/29 00:38:06;;;;;;;;;1.75;1.75;;;;;;;;4969133;28;45446;-65
2022/06/29 00:40:31;;;;;;;;;2.25;1.00;;;;;;;;4970406;28;45574;-65
2022/06/29 00:42:57;;;;;;;;;2.00;2.00;;;;;;;;4974263;28;45754;-65
2022/06/29 00:45:22;;;;;;;;;2.00;1.00;;;;;;;;4965949;28;47349;-64
2022/06/29 00:47:47;;;;;;;;;1.50;1.00;;;;;;;;4973828;28;45378;-64
2022/06/29 00:50:13;;;;;;;;;1.00;1.00;;;;;;;;4988250;28;45456;-64
2022/06/29 00:52:40;;;;;;;;;1.25;1.25;;;;;;;;4973030;28;46308;-64
2022/06/29 00:55:09;;;;;;;;;1.00;1.00;;;;;;;;4974613;28;45449;-64
2022/06/29 00:57:37;;;;;;;;;2.75;2.75;;;;;;;;4965686;28;45778;-65
2022/06/29 01:00:03;;;;;;;;;2.50;2.00;;;;;;;;4973215;28;45526;-64
2022/06/29 01:02:32;;;;;;;;;3.50;3.00;;;;;;;;4983071;28;47475;-66
2022/06/29 01:04:57;;;;;;;;;4.25;2.00;;;;;;;;4958341;28;45440;-64
2022/06/29 01:07:24;;;;;;;;;2.00;1.75;;;;;;;;4972032;28;46057;-64
2022/06/29 01:09:49;;;;;;;;;3.75;2.00;;;;;;;;4972611;28;45474;-66
2022/06/29 01:12:14;;;;;;;;;4.75;3.25;;;;;;;;4973188;28;45491;-64
2022/06/29 01:14:40;;;;;;;;;1.00;1.00;;;;;;;;5003869;28;45449;-65
2022/06/29 01:17:06;;;;;;;;;0.75;0.75;;;;;;;;4973418;28;45435;-65
2022/06/29 01:19:31;;;;;;;;;2.75;2.75;;;;;;;;4973441;28;45536;-64
2022/06/29 01:21:58;;;;;;;;;2.75;2.00;;;;;;;;4987838;28;48572;-64
2022/06/29 01:24:23;;;;;;;;;1.00;1.00;;;;;;;;4973070;28;45474;-63
2022/06/29 01:26:49;;;;;;;;;3.00;3.00;;;;;;;;4972246;28;45402;-64
2022/06/29 01:29:15;;;;;;;;;4.00;2.25;;;;;;;;4971179;28;45441;-65
2022/06/29 01:31:41;;;;;;;;;2.75;2.75;;;;;;;;4964243;28;46250;-64
2022/06/29 01:34:07;;;;;;;;;3.25;3.25;;;;;;;;4971715;28;45415;-64
2022/06/29 01:36:32;;;;;;;;;2.50;2.50;;;;;;;;4972984;28;45454;-65
2022/06/29 01:38:57;;;;;;;;;3.00;1.75;;;;;;;;4972162;28;45350;-65
2022/06/29 01:41:22;;;;;;;;;3.00;3.00;;;;;;;;4970719;28;47325;-64
2022/06/29 01:43:47;;;;;;;;;1.50;1.50;;;;;;;;4995490;28;45697;-64
2022/06/29 01:46:13;;;;;;;;;2.75;2.00;;;;;;;;4973028;28;45362;-64
2022/06/29 01:48:38;;;;;;;;;2.25;2.00;;;;;;;;4972786;28;45452;-64
2022/06/29 01:51:03;;;;;;;;;0.75;0.75;;;;;;;;4971731;28;45861;-64
2022/06/29 01:53:28;;;;;;;;;2.50;2.00;;;;;;;;4969678;28;45400;-64
2022/06/29 01:55:54;;;;;;;;;2.00;0.50;;;;;;;;4962362;28;45450;-65
2022/06/29 01:58:19;;;;;;;;;2.00;2.00;;;;;;;;4973827;28;45428;-64
2022/06/29 02:00:44;;;;;;;;;2.25;2.25;;;;;;;;4972594;28;45547;-64
2022/06/29 02:03:10;;;;;;;;;1.75;1.75;;;;;;;;4968509;28;45647;-64
2022/06/29 02:05:35;;;;;;;;;1.50;1.50;;;;;;;;4971342;28;45884;-64
2022/06/29 02:08:01;;;;;;;;;1.75;1.50;;;;;;;;5004116;28;45912;-63
2022/06/29 02:10:26;;;;;;;;;1.75;1.75;;;;;;;;5003186;28;47492;-64
2022/06/29 02:12:51;;;;;;;;;2.00;2.00;;;;;;;;4972784;28;45526;-64
2022/06/29 02:15:17;;;;;;;;;2.00;1.25;;;;;;;;4971723;28;45477;-64
2022/06/29 02:17:42;;;;;;;;;1.00;1.00;;;;;;;;4970474;28;46175;-65
2022/06/29 02:20:07;;;;;;;;;2.75;2.75;;;;;;;;5003870;28;48946;-64
2022/06/29 02:22:33;;;;;;;;;2.50;2.50;;;;;;;;4971760;28;45837;-64
2022/06/29 02:24:58;;;;;;;;;2.25;2.25;;;;;;;;4970805;28;45502;-63
2022/06/29 02:27:23;;;;;;;;;3.00;3.00;;;;;;;;4968209;28;45439;-63
2022/06/29 02:29:49;;;;;;;;;2.00;2.00;;;;;;;;4972102;28;46412;-62
2022/06/29 02:34:58;;;;;;;;;3.50;3.50;;;;;;;;4972181;28;45656;-63
2022/06/29 02:37:23;;;;;;;;;4.50;3.00;;;;;;;;4972231;28;45575;-63
2022/06/29 02:39:48;;;;;;;;;5.50;4.25;;;;;;;;5002502;28;48869;-64
2022/06/29 02:42:14;;;;;;;;;4.25;4.25;;;;;;;;4971736;28;45499;-64
2022/06/29 02:44:40;;;;;;;;;5.00;3.00;;;;;;;;5002453;28;45461;-65
2022/06/29 02:47:06;;;;;;;;;3.00;3.00;;;;;;;;4972137;28;45519;-64
2022/06/29 02:49:31;;;;;;;;;3.75;3.75;;;;;;;;4971991;28;45714;-64
2022/06/29 02:51:57;;;;;;;;;1.50;1.50;;;;;;;;4971381;28;45553;-64
2022/06/29 02:54:22;;;;;;;;;2.75;2.75;;;;;;;;4969682;28;45440;-65
2022/06/29 02:56:48;;;;;;;;;3.00;2.00;;;;;;;;4967400;28;45653;-65
2022/06/29 02:59:13;;;;;;;;;2.25;2.25;;;;;;;;4971909;28;46458;-66
2022/06/29 03:01:38;;;;;;;;;3.00;3.00;;;;;;;;4972309;28;45391;-64
2022/06/29 03:04:03;;;;;;;;;1.25;1.25;;;;;;;;4972115;28;45595;-65
2022/06/29 03:06:29;;;;;;;;;2.75;2.00;;;;;;;;4972100;28;46368;-64
2022/06/29 03:08:54;;;;;;;;;3.00;3.00;;;;;;;;4964301;28;45450;-64
2022/06/29 03:11:19;;;;;;;;;2.75;2.75;;;;;;;;4971973;28;45505;-63
2022/06/29 03:13:44;;;;;;;;;4.00;4.00;;;;;;;;5003361;28;45514;-64
2022/06/29 03:16:10;;;;;;;;;1.00;1.00;;;;;;;;5003239;28;45574;-64
2022/06/29 03:18:35;;;;;;;;;3.00;3.00;;;;;;;;4961468;28;47756;-64
2022/06/29 03:21:00;;;;;;;;;3.00;3.00;;;;;;;;4971036;28;45415;-63
2022/06/29 03:23:25;;;;;;;;;2.50;2.50;;;;;;;;4971718;28;45390;-64
2022/06/29 03:25:50;;;;;;;;;4.50;2.50;;;;;;;;4971923;28;45429;-64
2022/06/29 03:28:16;;;;;;;;;5.00;3.25;;;;;;;;5002954;28;48849;-64
2022/06/29 03:30:41;;;;;;;;;4.50;2.50;;;;;;;;4971548;28;45370;-63
2022/06/29 03:33:06;;;;;;;;;3.50;2.75;;;;;;;;4967399;28;45404;-64
2022/06/29 03:35:33;;;;;;;;;3.00;3.00;;;;;;;;4970223;28;45598;-63
2022/06/29 03:37:58;;;;;;;;;1.00;1.00;;;;;;;;4971407;28;46928;-64
2022/06/29 03:40:23;;;;;;;;;1.25;0.25;;;;;;;;4971082;28;45557;-63
2022/06/29 03:42:48;;;;;;;;;1.75;1.75;;;;;;;;4961713;28;45509;-63
2022/06/29 03:45:14;;;;;;;;;1.50;1.50;;;;;;;;4967312;28;45562;-64
2022/06/29 03:47:39;;;;;;;;;3.75;3.75;;;;;;;;4971026;28;46301;-64
2022/06/29 03:50:06;;;;;;;;;3.00;3.00;;;;;;;;4971016;28;45296;-64
2022/06/29 03:52:31;;;;;;;;;3.25;3.25;;;;;;;;4970508;28;45392;-63
2022/06/29 03:54:56;;;;;;;;;2.25;2.25;;;;;;;;4957642;28;45553;-64
2022/06/29 03:57:21;;;;;;;;;1.50;1.50;;;;;;;;4999054;28;47459;-63
2022/06/29 03:59:46;;;;;;;;;3.50;3.00;;;;;;;;4970870;28;45465;-64
2022/06/29 04:02:12;;;;;;;;;3.50;2.50;;;;;;;;4971120;28;45473;-63
2022/06/29 04:04:37;;;;;;;;;2.25;1.25;;;;;;;;5001440;28;45315;-64
2022/06/29 04:07:02;;;;;;;;;3.50;3.00;;;;;;;;5002947;28;48831;-63
2022/06/29 04:09:27;;;;;;;;;4.00;2.50;;;;;;;;4968749;28;45419;-62
2022/06/29 04:11:53;;;;;;;;;3.00;3.00;;;;;;;;4970948;28;45473;-63
2022/06/29 04:14:19;;;;;;;;;2.25;2.25;;;;;;;;4970703;28;45452;-63
2022/06/29 04:16:45;;;;;;;;;2.00;2.00;;;;;;;;5001230;28;49012;-64
2022/06/29 04:19:11;;;;;;;;;2.50;2.50;;;;;;;;4971534;28;45431;-62
2022/06/29 04:21:36;;;;;;;;;3.75;3.00;;;;;;;;4968890;28;46490;-65
2022/06/29 04:24:01;;;;;;;;;4.00;3.25;;;;;;;;4970874;28;45592;-63
2022/06/29 04:26:26;;;;;;;;;4.25;4.25;;;;;;;;4970229;28;45417;-65
2022/06/29 04:28:52;;;;;;;;;2.25;2.25;;;;;;;;4970367;28;46097;-63
2022/06/29 04:31:17;;;;;;;;;3.00;3.00;;;;;;;;4971670;28;45392;-64
2022/06/29 04:33:42;;;;;;;;;3.25;3.25;;;;;;;;4969787;28;45747;-64
2022/06/29 04:36:08;;;;;;;;;4.00;3.75;;;;;;;;4968474;28;47146;-64
2022/06/29 04:38:33;;;;;;;;;5.00;3.75;;;;;;;;4969888;28;45455;-63
2022/06/29 04:41:02;;;;;;;;;4.00;3.00;;;;;;;;4971404;28;45450;-63
2022/06/29 04:43:29;;;;;;;;;2.25;1.50;;;;;;;;4974299;28;45898;-63
2022/06/29 04:48:38;;;;;;;;;3.75;3.75;;;;;;;;4973585;28;45473;-63
2022/06/29 04:51:03;;;;;;;;;5.00;4.00;;;;;;;;4973134;28;45483;-63
2022/06/29 04:53:29;;;;;;;;;4.00;4.00;;;;;;;;4972144;28;47013;-63
2022/06/29 04:55:54;;;;;;;;;4.00;4.00;;;;;;;;4973652;28;45491;-63
2022/06/29 04:58:19;;;;;;;;;3.25;3.00;;;;;;;;4973888;28;45402;-63
2022/06/29 05:00:44;;;;;;;;;4.00;3.00;;;;;;;;4973572;28;45431;-64
2022/06/29 05:03:10;;;;;;;;;2.00;2.00;;;;;;;;4972834;28;45643;-63
2022/06/29 05:05:35;;;;;;;;;5.00;3.50;;;;;;;;4969998;28;48537;-65
2022/06/29 05:08:00;;;;;;;;;4.75;2.50;;;;;;;;4966139;28;45566;-63
2022/06/29 05:10:25;;;;;;;;;2.75;2.75;;;;;;;;5004733;28;45395;-65
2022/06/29 05:12:50;;;;;;;;;7.00;3.00;;;;;;;;5005116;28;45506;-64
2022/06/29 05:15:16;;;;;;;;;5.50;3.00;;;;;;;;4972735;28;45765;-65
2022/06/29 05:17:41;;;;;;;;;2.25;2.00;;;;;;;;4971933;28;46224;-64
2022/06/29 05:20:08;;;;;;;;;4.00;2.50;;;;;;;;4973332;28;45457;-64
2022/06/29 05:22:33;;;;;;;;;2.50;2.50;;;;;;;;4971340;28;45474;-63
2022/06/29 05:24:58;;;;;;;;;4.00;3.00;;;;;;;;4973438;28;46032;-63
2022/06/29 05:27:24;;;;;;;;;3.00;2.75;;;;;;;;4968365;28;46105;-63
2022/06/29 05:29:49;;;;;;;;;4.00;2.25;;;;;;;;4970813;28;45427;-63
2022/06/29 05:32:14;;;;;;;;;2.50;2.50;;;;;;;;4972938;28;45763;-63
2022/06/29 05:34:39;;;;;;;;;2.25;1.75;;;;;;;;4972065;28;45565;-63
2022/06/29 05:37:05;;;;;;;;;4.75;3.75;;;;;;;;4988582;28;46003;-63
2022/06/29 05:39:30;;;;;;;;;2.00;2.00;;;;;;;;4968919;28;45457;-63
2022/06/29 05:41:55;;;;;;;;;2.75;2.75;;;;;;;;4967375;28;45558;-64
2022/06/29 05:44:20;;;;;;;;;0.00;0.00;;;;;;;;4964905;28;46584;-63
2022/06/29 05:46:45;;;;;;;;;4.00;2.00;;;;;;;;4973370;28;45384;-63
2022/06/29 05:49:11;;;;;;;;;1.50;1.50;;;;;;;;4991006;28;45504;-62
2022/06/29 05:51:36;;;;;;;;;1.00;1.00;;;;;;;;4962096;28;45802;-63
2022/06/29 05:54:01;;;;;;;;;2.25;2.25;;;;;;;;4965492;28;45846;-63
2022/06/29 05:56:26;;;;;;;;;2.00;2.00;;;;;;;;4972637;28;45719;-65
2022/06/29 05:58:52;;;;;;;;;3.00;3.00;;;;;;;;4957841;28;45852;-65
2022/06/29 06:01:17;;;;;;;;;4.00;4.00;;;;;;;;4972080;28;45417;-64
2022/06/29 06:03:42;;;;;;;;;3.75;2.75;;;;;;;;4962387;28;46375;-65
2022/06/29 06:06:07;;;;;;;;;3.00;2.00;;;;;;;;4993168;28;45639;-65
2022/06/29 06:08:32;;;;;;;;;4.00;4.00;;;;;;;;4962099;28;45427;-63
2022/06/29 06:10:58;;;;;;;;;2.00;2.00;;;;;;;;4958599;28;45411;-65
2022/06/29 06:13:23;;;;;;;;;2.00;2.00;;;;;;;;4957363;28;46077;-65
2022/06/29 06:15:49;;;;;;;;;3.00;3.00;;;;;;;;4993278;28;45480;-65
2022/06/29 06:18:14;;;;;;;;;2.50;2.50;;;;;;;;4968761;28;45500;-65
2022/06/29 06:20:39;;;;;;;;;2.00;2.00;;;;;;;;5004353;28;45540;-65
2022/06/29 06:23:05;;;;;;;;;2.75;2.75;;;;;;;;4971229;28;47678;-65
2022/06/29 06:25:30;;;;;;;;;3.00;2.00;;;;;;;;4971406;28;45451;-65
2022/06/29 06:27:56;;;;;;;;;3.75;2.00;;;;;;;;4992286;28;45574;-64
2022/06/29 06:30:21;;;;;;;;;3.00;2.00;;;;;;;;4993017;28;45382;-64
2022/06/29 06:32:46;;;;;;;;;1.75;1.75;;;;;;;;4964500;28;45890;-64
2022/06/29 06:35:11;;;;;;;;;2.75;2.50;;;;;;;;5004010;28;49263;-64
2022/06/29 06:37:37;;;;;;;;;2.00;2.00;;;;;;;;4971404;28;45455;-65
2022/06/29 06:42:46;;;;;;;;;3.00;3.00;;;;;;;;4972571;28;46241;-64
2022/06/29 06:45:11;;;;;;;;;0.00;0.00;;;;;;;;4971834;28;45462;-64
2022/06/29 06:47:37;;;;;;;;;4.00;2.25;;;;;;;;4970161;28;45387;-64
2022/06/29 06:50:02;;;;;;;;;1.50;1.50;;;;;;;;4956713;28;45708;-65
2022/06/29 06:52:29;;;;;;;;;2.25;2.25;;;;;;;;4971832;28;46479;-65
2022/06/29 06:54:54;;;;;;;;;1.00;1.00;;;;;;;;4966488;28;45593;-65
2022/06/29 06:57:19;;;;;;;;;1.75;1.00;;;;;;;;4963184;28;45425;-65
2022/06/29 06:59:44;;;;;;;;;1.25;1.25;;;;;;;;4970880;28;45645;-65
2022/06/29 07:02:10;;;;;;;;;3.25;1.25;;;;;;;;5002425;28;48470;-64
2022/06/29 07:04:35;;;;;;;;;2.50;2.00;;;;;;;;4957438;28;45451;-64
2022/06/29 07:07:00;;;;;;;;;0.50;0.50;;;;;;;;4967193;28;45411;-65
2022/06/29 07:09:25;;;;;;;;;1.50;1.50;;;;;;;;4967986;28;45554;-65
2022/06/29 07:11:51;;;;;;;;;2.25;2.25;;;;;;;;4964154;28;46038;-65
2022/06/29 07:14:16;;;;;;;;;0.75;0.75;;;;;;;;5002074;28;46030;-64
2022/06/29 07:16:41;;;;;;;;;0.50;0.50;;;;;;;;4968374;28;45308;-64
2022/06/29 07:19:07;;;;;;;;;1.00;1.00;;;;;;;;4997503;28;45671;-64
2022/06/29 07:21:32;;;;;;;;;0.50;0.50;;;;;;;;4967334;28;45872;-64
2022/06/29 07:23:58;;;;;;;;;2.50;2.00;;;;;;;;4970693;28;45539;-65
2022/06/29 07:26:27;;;;;;;;;1.00;1.00;;;;;;;;5003022;28;45982;-63
2022/06/29 07:28:52;;;;;;;;;1.25;1.00;;;;;;;;4969873;28;45552;-64
2022/06/29 07:31:18;;;;;;;;;1.00;1.00;;;;;;;;4971543;28;45547;-63
2022/06/29 07:33:43;;;;;;;;;3.50;2.00;;;;;;;;4986150;28;45520;-64
2022/06/29 07:36:08;;;;;;;;;2.00;1.00;;;;;;;;4971617;28;45552;-65
2022/06/29 07:38:34;;;;;;;;;0.75;0.75;;;;;;;;4972167;28;45498;-63
2022/06/29 07:41:00;;;;;;;;;0.75;0.75;;;;;;;;4969685;28;47762;-65
2022/06/29 07:43:26;;;;;;;;;0.75;0.75;;;;;;;;4971420;28;45352;-66
2022/06/29 07:45:52;;;;;;;;;1.00;1.00;;;;;;;;4971681;28;45547;-64
2022/06/29 07:48:18;;;;;;;;;1.75;1.75;;;;;;;;5001605;28;45556;-64
2022/06/29 07:50:43;;;;;;;;;0.50;0.50;;;;;;;;4988254;28;48393;-63
2022/06/29 07:53:08;;;;;;;;;0.75;0.75;;;;;;;;4959961;28;45410;-64
2022/06/29 07:55:33;;;;;;;;;2.00;1.00;;;;;;;;4959888;28;45380;-64
2022/06/29 07:57:59;;;;;;;;;1.00;1.00;;;;;;;;4960269;28;45369;-64
2022/06/29 08:00:26;;;;;;;;;0.75;0.75;;;;;;;;4987209;28;47517;-64
2022/06/29 08:02:51;;;;;;;;;0.50;0.25;;;;;;;;4956694;28;45819;-64
2022/06/29 08:05:16;;;;;;;;;3.25;1.00;;;;;;;;4960065;28;45686;-64
2022/06/29 08:07:42;;;;;;;;;1.50;1.00;;;;;;;;4960046;28;45428;-64
2022/06/29 08:10:08;;;;;;;;;1.00;1.00;;;;;;;;4965959;28;45797;-63
2022/06/29 08:12:35;;;;;;;;;2.00;2.00;;;;;;;;5002758;28;45468;-63
2022/06/29 08:15:00;;;;;;;;;1.25;1.25;;;;;;;;4971575;28;45345;-64
2022/06/29 08:17:25;;;;;;;;;1.75;0.00;;;;;;;;4974495;28;45488;-65
2022/06/29 08:19:51;;;;;;;;;1.00;1.00;;;;;;;;4974462;28;45813;-65
2022/06/29 08:22:16;;;;;;;;;0.50;0.50;;;;;;;;5006129;28;46149;-63
2022/06/29 08:24:41;;;;;;;;;4.00;2.00;;;;;;;;4974924;28;45913;-65
2022/06/29 08:27:06;;;;;;;;;2.25;2.25;;;;;;;;4974977;28;45616;-64
2022/06/29 08:29:31;;;;;;;;;1.00;1.00;;;;;;;;4993465;28;46840;-63
2022/06/29 08:31:57;;;;;;;;;1.25;1.25;;;;;;;;4971590;28;45534;-63
2022/06/29 08:34:40;;;;;;;;;1.00;1.00;;;;;;;;4973053;28;46552;-64
2022/06/29 08:37:06;;;;;;;;;2.00;1.00;;;;;;;;4974585;28;45538;-63
2022/06/29 08:39:32;;;;;;;;;1.33;1.33;;;;;;;;4974190;28;46669;-65
2022/06/29 08:42:00;;;;;;;;;1.00;1.00;;;;;;;;4974441;28;45528;-64
2022/06/29 08:44:25;;;;;;;;;1.75;1.75;;;;;;;;4972314;28;45498;-65
2022/06/29 08:46:50;;;;;;;;;2.00;2.00;;;;;;;;4997970;28;45533;-65
2022/06/29 08:49:16;;;;;;;;;0.75;0.75;;;;;;;;4997032;28;47605;-65
2022/06/29 08:51:41;;;;;;;;;4.25;2.00;;;;;;;;4974206;28;45386;-64
2022/06/29 08:54:07;;;;;;;;;1.00;1.00;;;;;;;;4974402;28;45410;-63
2022/06/29 08:56:34;;;;;;;;;0.25;0.25;;;;;;;;4999826;28;45415;-62
2022/06/29 08:59:01;;;;;;;;;1.00;1.00;;;;;;;;4974068;28;46498;-64
2022/06/29 09:01:27;;;;;;;;;1.00;1.00;;;;;;;;5001349;28;45442;-64
2022/06/29 09:03:52;;;;;;;;;2.00;2.00;;;;;;;;4994194;28;45408;-65
2022/06/29 09:06:18;;;;;;;;;2.00;1.00;;;;;;;;4974327;28;45346;-62
2022/06/29 09:08:43;;;;;;;;;1.00;1.00;;;;;;;;4999236;28;46368;-65
2022/06/29 09:11:22;;;;;;;;;2.50;1.50;;;;;;;;4966764;28;45510;-63
2022/06/29 09:13:48;;;;;;;;;1.00;1.00;;;;;;;;4997381;28;45542;-66
2022/06/29 09:16:13;;;;;;;;;2.00;2.00;;;;;;;;4970636;28;45347;-65
2022/06/29 09:18:38;;;;;;;;;2.00;2.00;;;;;;;;4973497;28;45792;-65
2022/06/29 09:21:04;;;;;;;;;0.00;0.00;;;;;;;;4970108;28;45533;-64
2022/06/29 09:23:30;;;;;;;;;2.50;1.00;;;;;;;;4972584;28;45494;-65
2022/06/29 09:25:56;;;;;;;;;0.50;0.50;;;;;;;;4996599;28;47821;-65
2022/06/29 09:28:25;;;;;;;;;1.75;1.00;;;;;;;;4960361;28;47752;-65
2022/06/29 09:30:54;;;;;;;;;1.00;1.00;;;;;;;;4960324;28;45628;-64
2022/06/29 09:33:21;;;;;;;;;1.00;1.00;;;;;;;;4971308;28;45613;-66
2022/06/29 09:36:02;;;;;;;;;1.00;1.00;;;;;;;;5002003;28;45662;-66
2022/06/29 09:38:27;;;;;;;;;1.75;1.75;;;;;;;;4970498;28;45486;-66
2022/06/29 09:41:07;;;;;;;;;11.00;11.00;;;;;;;;4970900;28;46687;-64
2022/06/29 09:43:33;;;;;;;;;1.00;1.00;;;;;;;;4970867;28;45486;-65
2022/06/29 09:46:00;;;;;;;;;0.00;0.00;;;;;;;;4971554;28;45533;-65
2022/06/29 09:48:26;;;;;;;;;0.00;0.00;;;;;;;;4986531;28;46689;-66
2022/06/29 09:50:55;;;;;;;;;0.00;0.00;;;;;;;;4971013;28;46482;-65
2022/06/29 09:53:39;;;;;;;;;1.00;1.00;;;;;;;;4972232;28;45469;-66
2022/06/29 09:56:06;;;;;;;;;1.00;1.00;;;;;;;;4971100;28;45535;-63
2022/06/29 09:58:45;;;;;;;;;1.00;1.00;;;;;;;;4969502;28;48658;-65
2022/06/29 10:03:56;;;;;;;;;1.00;1.00;;;;;;;;4972648;28;45490;-64
2022/06/29 10:06:21;;;;;;;;;1.00;1.00;;;;;;;;4973183;28;45518;-64
2022/06/29 10:08:47;;;;;;;;;1.00;1.00;;;;;;;;4973716;28;46624;-64
2022/06/29 10:14:05;;;;;;;;;2.25;2.25;;;;;;;;5000732;28;45553;-64
2022/06/29 10:16:56;;;;;;;;;3.75;2.00;;;;;;;;4998871;28;45608;-64
2022/06/29 10:19:22;;;;;;;;;0.75;0.75;;;;;;;;4996404;28;45617;-64
2022/06/29 10:21:47;;;;;;;;;1.00;0.00;;;;;;;;4980705;28;45595;-64
2022/06/29 10:24:15;;;;;;;;;1.00;1.00;;;;;;;;4991414;28;45464;-65
2022/06/29 10:26:41;;;;;;;;;1.00;1.00;;;;;;;;5009077;28;45566;-65
2022/06/29 10:29:06;;;;;;;;;0.50;0.50;;;;;;;;5007627;28;45500;-63
2022/06/29 10:31:50;;;;;;;;;2.25;2.25;;;;;;;;5003342;28;45533;-67
2022/06/29 10:35:07;;;;;;;;;1.25;1.25;;;;;;;;4987967;28;45410;-64
2022/06/29 10:37:24;;;;;;;;;1.00;1.00;;;;;;;;4997289;28;45461;-64
2022/06/29 10:39:49;;;;;;;;;2.25;1.00;;;;;;;;4996270;28;46429;-64
2022/06/29 10:45:06;;;;;;;;;0.00;0.00;;;;;;;;4991369;28;46029;-64
2022/06/29 10:47:31;;;;;;;;;3.50;2.50;;;;;;;;4993051;28;45816;-64
2022/06/29 10:50:11;;;;;;;;;3.00;1.75;;;;;;;;4988104;28;47500;-64
2022/06/29 10:52:37;;;;;;;;;1.50;1.00;;;;;;;;4972395;28;45415;-64
2022/06/29 10:55:02;;;;;;;;;7.75;6.75;;;;;;;;4972255;28;45453;-65
2022/06/29 10:57:28;;;;;;;;;1.25;1.25;;;;;;;;5004010;28;45367;-64
2022/06/29 10:59:53;;;;;;;;;12.25;11.00;;;;;;;;4973088;28;46923;-64
2022/06/29 11:02:19;;;;;;;;;1.00;1.00;;;;;;;;4972272;28;45479;-64
2022/06/29 11:04:44;;;;;;;;;0.75;0.75;;;;;;;;4972191;28;45478;-64
2022/06/29 11:12:48;;;;;;;;;1.00;1.00;;;;;;;;4958853;28;45400;-65
2022/06/29 11:17:57;;;;;;;;;0.50;0.50;;;;;;;;4969058;28;45469;-63
2022/06/29 11:20:22;;;;;;;;;0.50;0.50;;;;;;;;4972249;28;45988;-66
2022/06/29 11:22:56;;;;;;;;;1.00;1.00;;;;;;;;4996464;28;45367;-64
2022/06/29 11:25:22;;;;;;;;;0.00;0.00;;;;;;;;4964634;28;45372;-63
2022/06/29 11:27:48;;;;;;;;;0.00;0.00;;;;;;;;5003279;28;45580;-63
2022/06/29 11:30:19;;;;;;;;;1.25;0.75;;;;;;;;4971962;28;46331;-64
2022/06/29 11:32:45;;;;;;;;;0.00;0.00;;;;;;;;4972497;28;45405;-65
2022/06/29 11:35:11;;;;;;;;;0.00;0.00;;;;;;;;4971614;28;45651;-63
2022/06/29 11:37:36;;;;;;;;;0.25;0.25;;;;;;;;4971891;28;45486;-64
2022/06/29 11:40:02;;;;;;;;;1.00;1.00;;;;;;;;4971595;28;46456;-63
2022/06/29 11:45:15;;;;;;;;;1.25;0.00;;;;;;;;4971959;28;45328;-65
2022/06/29 11:47:50;;;;;;;;;0.00;0.00;;;;;;;;4967695;28;45638;-64
2022/06/29 11:50:15;;;;;;;;;0.00;0.00;;;;;;;;5003695;28;48091;-64
2022/06/29 11:52:44;;;;;;;;;0.00;0.00;;;;;;;;5000449;28;45492;-63
2022/06/29 11:55:09;;;;;;;;;0.25;0.25;;;;;;;;4964276;28;45396;-63
2022/06/29 11:57:34;;;;;;;;;1.00;1.00;;;;;;;;5006700;28;45565;-63
2022/06/29 12:00:04;;;;;;;;;1.50;1.00;;;;;;;;4975117;28;48113;-64
2022/06/29 12:02:35;;;;;;;;;0.00;0.00;;;;;;;;5007157;28;45343;-65
2022/06/29 12:05:02;;;;;;;;;0.00;0.00;;;;;;;;4974967;28;45556;-64
2022/06/29 12:07:28;;;;;;;;;2.00;1.00;;;;;;;;4975006;28;45533;-63
2022/06/29 12:09:54;;;;;;;;;0.00;0.00;;;;;;;;4974998;28;45991;-64
2022/06/29 12:12:19;;;;;;;;;1.00;0.00;;;;;;;;4975160;28;45279;-65
2022/06/29 12:14:44;;;;;;;;;0.00;0.00;;;;;;;;4975792;28;45348;-64
2022/06/29 12:17:10;;;;;;;;;1.00;1.00;;;;;;;;4975058;28;45482;-64
2022/06/29 12:19:38;;;;;;;;;2.00;1.00;;;;;;;;5001146;28;47351;-64
2022/06/29 12:22:03;;;;;;;;;0.00;0.00;;;;;;;;4964452;28;45520;-63
2022/06/29 12:24:29;;;;;;;;;0.00;0.00;;;;;;;;4975089;28;45518;-65
2022/06/29 12:26:54;;;;;;;;;0.00;0.00;;;;;;;;4975663;28;45406;-64
2022/06/29 12:29:19;;;;;;;;;0.00;0.00;;;;;;;;4974619;28;46458;-65
2022/06/29 12:31:45;;;;;;;;;0.75;0.75;;;;;;;;4974686;28;45315;-64
2022/06/29 12:34:10;;;;;;;;;0.25;0.00;;;;;;;;4974498;28;46177;-65
2022/06/29 12:36:36;;;;;;;;;0.50;0.50;;;;;;;;4975076;28;45692;-65
2022/06/29 12:39:01;;;;;;;;;2.00;0.25;;;;;;;;4974905;28;46446;-65
2022/06/29 12:41:26;;;;;;;;;1.00;1.00;;;;;;;;4975282;28;45386;-64
2022/06/29 12:43:51;;;;;;;;;1.00;1.00;;;;;;;;4998829;28;45426;-64
2022/06/29 12:46:17;;;;;;;;;0.25;0.25;;;;;;;;4997777;28;45527;-64
2022/06/29 12:48:42;;;;;;;;;2.00;2.00;;;;;;;;4972569;28;47748;-63
2022/06/29 12:51:07;;;;;;;;;1.00;1.00;;;;;;;;4972508;28;46569;-65
2022/06/29 12:53:32;;;;;;;;;0.50;0.50;;;;;;;;4972627;28;45462;-63
2022/06/29 12:55:59;;;;;;;;;2.00;2.00;;;;;;;;4972418;28;45630;-63
2022/06/29 12:58:24;;;;;;;;;2.00;0.00;;;;;;;;4974134;28;45624;-65
2022/06/29 13:00:50;;;;;;;;;2.00;2.00;;;;;;;;4972947;28;46175;-65
2022/06/29 13:03:15;;;;;;;;;1.00;1.00;;;;;;;;4973931;28;45490;-65
2022/06/29 13:05:41;;;;;;;;;0.00;0.00;;;;;;;;4970490;28;45872;-64
2022/06/29 13:08:07;;;;;;;;;0.00;0.00;;;;;;;;4972132;28;46700;-63
2022/06/29 13:10:32;;;;;;;;;0.00;0.00;;;;;;;;5000607;28;45474;-63
2022/06/29 13:12:57;;;;;;;;;0.00;0.00;;;;;;;;4963282;28;45391;-64
2022/06/29 13:15:23;;;;;;;;;1.00;1.00;;;;;;;;5005343;28;45372;-64
2022/06/29 13:17:48;;;;;;;;;2.25;0.00;;;;;;;;4969632;28;47246;-64
2022/06/29 13:20:13;;;;;;;;;0.00;0.00;;;;;;;;4970276;28;46088;-64
2022/06/29 13:22:39;;;;;;;;;1.00;1.00;;;;;;;;4973681;28;45493;-64
2022/06/29 13:25:05;;;;;;;;;0.00;0.00;;;;;;;;5005196;28;45515;-65
2022/06/29 13:27:30;;;;;;;;;0.00;0.00;;;;;;;;4973506;28;45510;-63
2022/06/29 13:29:55;;;;;;;;;0.00;0.00;;;;;;;;4974234;28;45421;-63
2022/06/29 13:32:20;;;;;;;;;0.50;0.50;;;;;;;;4974067;28;45347;-63
2022/06/29 13:34:46;;;;;;;;;0.25;0.00;;;;;;;;4973264;28;45522;-64
2022/06/29 13:37:11;;;;;;;;;1.00;1.00;;;;;;;;4973517;28;46279;-63
2022/06/29 13:39:36;;;;;;;;;0.00;0.00;;;;;;;;4973729;28;45401;-64
2022/06/29 13:42:02;;;;;;;;;0.00;0.00;;;;;;;;4972427;28;45356;-64
2022/06/29 13:44:27;;;;;;;;;0.00;0.00;;;;;;;;4974110;28;45308;-63
2022/06/29 13:46:53;;;;;;;;;1.00;1.00;;;;;;;;4973344;28;45452;-63
2022/06/29 13:49:18;;;;;;;;;0.00;0.00;;;;;;;;5004969;28;45374;-62
2022/06/29 13:51:44;;;;;;;;;2.00;1.00;;;;;;;;4970840;28;45467;-62
2022/06/29 13:54:09;;;;;;;;;1.00;1.00;;;;;;;;4973676;28;45536;-63
2022/06/29 13:56:34;;;;;;;;;0.00;0.00;;;;;;;;4969233;28;49777;-64
2022/06/29 13:59:00;;;;;;;;;0.00;0.00;;;;;;;;4970683;28;45352;-64
2022/06/29 14:01:25;;;;;;;;;0.00;0.00;;;;;;;;5001103;28;46001;-63
2022/06/29 14:03:50;;;;;;;;;1.00;1.00;;;;;;;;4961305;28;45597;-63
2022/06/29 14:06:16;;;;;;;;;2.00;2.00;;;;;;;;4971626;28;47967;-63
2022/06/29 14:08:41;;;;;;;;;0.75;0.75;;;;;;;;4973741;28;45386;-63
2022/06/29 14:11:07;;;;;;;;;0.00;0.00;;;;;;;;4995414;28;45513;-65
2022/06/29 14:13:34;;;;;;;;;0.00;0.00;;;;;;;;4992351;28;45636;-64
2022/06/29 14:15:59;;;;;;;;;0.50;0.50;;;;;;;;4968056;28;46526;-65
2022/06/29 14:18:24;;;;;;;;;1.00;0.00;;;;;;;;4975864;28;45445;-66
2022/06/29 14:20:50;;;;;;;;;2.00;2.00;;;;;;;;5008057;28;45319;-64
2022/06/29 14:23:15;;;;;;;;;1.00;1.00;;;;;;;;4972524;28;45362;-63
2022/06/29 14:25:40;;;;;;;;;1.00;1.00;;;;;;;;4972560;28;46073;-63
2022/06/29 14:28:06;;;;;;;;;0.50;0.50;;;;;;;;4965959;28;45739;-64
2022/06/29 14:30:31;;;;;;;;;4.50;4.50;;;;;;;;4976494;28;45531;-63
2022/06/29 14:32:56;;;;;;;;;24.50;23.00;;;;;;;;4971789;28;45392;-63
2022/06/29 14:35:29;;;;;;;;;2.00;2.00;;;;;;;;5110360;27;45390;-64
2022/06/29 14:37:54;;;;;;;;;20.75;18.50;;;;;;;;5116368;27;45501;-63
2022/06/29 14:40:19;;;;;;;;;7.00;7.00;;;;;;;;5117273;27;45510;-64
2022/06/29 14:42:45;;;;;;;;;1.75;1.75;;;;;;;;5108103;27;46302;-62
2022/06/29 14:45:10;;;;;;;;;1.00;1.00;;;;;;;;5109378;27;46679;-62
2022/06/29 14:47:35;;;;;;;;;1.00;1.00;;;;;;;;5109524;27;45495;-63
2022/06/29 14:50:01;;;;;;;;;0.75;0.75;;;;;;;;5111739;27;47095;-63
2022/06/29 14:52:26;;;;;;;;;0.25;0.25;;;;;;;;5105732;27;45467;-63
2022/06/29 14:54:51;;;;;;;;;1.00;1.00;;;;;;;;5106909;27;47405;-66
2022/06/29 14:57:17;;;;;;;;;2.00;2.00;;;;;;;;5121630;27;45441;-63
2022/06/29 14:59:42;;;;;;;;;0.50;0.50;;;;;;;;5101940;27;45889;-63
2022/06/29 15:02:08;;;;;;;;;0.75;0.75;;;;;;;;5116496;27;45966;-63
2022/06/29 15:04:33;;;;;;;;;1.25;1.25;;;;;;;;5112992;27;45559;-64